sensor_id;sensor_type;location;lat;lon;timestamp;P1;durP1;ratioP1;P2;durP2;ratioP2
41943;SDS011;27636;52.610;13.244;2023-07-30T00:03:18;8.85;;;4.88;;
41943;SDS011;27636;52.610;13.244;2023-07-30T00:08:24;10.35;;;5.53;;
41943;SDS011;27636;52.610;13.244;2023-07-30T00:13:29;12.10;;;5.22;;
41943;SDS011;27636;52.610;13.244;2023-07-30T00:18:33;8.25;;;4.57;;
41943;SDS011;27636;52.610;13.244;2023-07-30T00:23:38;10.15;;;5.28;;
41943;SDS011;27636;52.610;13.244;2023-07-30T00:28:42;8.73;;;4.60;;
41943;SDS011;27636;52.610;13.244;2023-07-30T00:33:45;7.78;;;4.22;;
41943;SDS011;27636;52.610;13.244;2023-07-30T00:38:50;9.25;;;4.28;;
41943;SDS011;27636;52.610;13.244;2023-07-30T00:43:54;9.27;;;4.72;;
41943;SDS011;27636;52.610;13.244;2023-07-30T00:48:57;8.20;;;4.45;;
41943;SDS011;27636;52.610;13.244;2023-07-30T00:54:02;9.13;;;4.32;;
41943;SDS011;27636;52.610;13.244;2023-07-30T00:59:05;9.07;;;4.50;;
41943;SDS011;27636;52.610;13.244;2023-07-30T01:04:09;9.60;;;4.93;;
41943;SDS011;27636;52.610;13.244;2023-07-30T01:09:15;12.10;;;5.38;;
41943;SDS011;27636;52.610;13.244;2023-07-30T01:14:18;8.70;;;4.07;;
41943;SDS011;27636;52.610;13.244;2023-07-30T01:24:29;10.40;;;5.20;;
41943;SDS011;27636;52.610;13.244;2023-07-30T01:29:45;9.88;;;5.00;;
41943;SDS011;27636;52.610;13.244;2023-07-30T01:34:55;10.68;;;4.70;;
41943;SDS011;27636;52.610;13.244;2023-07-30T01:40:02;10.35;;;4.97;;
41943;SDS011;27636;52.610;13.244;2023-07-30T01:45:07;13.48;;;5.28;;
41943;SDS011;27636;52.610;13.244;2023-07-30T01:50:10;9.55;;;4.70;;
41943;SDS011;27636;52.610;13.244;2023-07-30T01:55:15;9.32;;;4.22;;
41943;SDS011;27636;52.610;13.244;2023-07-30T02:00:19;9.10;;;4.85;;
41943;SDS011;27636;52.610;13.244;2023-07-30T02:05:23;18.45;;;5.20;;
41943;SDS011;27636;52.610;13.244;2023-07-30T02:10:29;11.60;;;4.38;;
41943;SDS011;27636;52.610;13.244;2023-07-30T02:15:32;7.97;;;4.45;;
41943;SDS011;27636;52.610;13.244;2023-07-30T02:20:36;13.30;;;5.10;;
41943;SDS011;27636;52.610;13.244;2023-07-30T02:25:41;16.75;;;5.68;;
41943;SDS011;27636;52.610;13.244;2023-07-30T02:30:44;9.55;;;4.50;;
41943;SDS011;27636;52.610;13.244;2023-07-30T02:35:48;10.02;;;5.13;;
41943;SDS011;27636;52.610;13.244;2023-07-30T02:40:53;13.75;;;5.75;;
41943;SDS011;27636;52.610;13.244;2023-07-30T02:45:56;11.27;;;4.97;;
41943;SDS011;27636;52.610;13.244;2023-07-30T02:51:00;9.23;;;5.20;;
41943;SDS011;27636;52.610;13.244;2023-07-30T02:56:05;9.13;;;4.75;;
41943;SDS011;27636;52.610;13.244;2023-07-30T03:01:09;9.48;;;4.72;;
41943;SDS011;27636;52.610;13.244;2023-07-30T03:06:13;10.18;;;5.07;;
41943;SDS011;27636;52.610;13.244;2023-07-30T03:11:18;11.27;;;4.93;;
41943;SDS011;27636;52.610;13.244;2023-07-30T03:16:22;10.50;;;4.53;;
41943;SDS011;27636;52.610;13.244;2023-07-30T03:21:26;9.48;;;4.88;;
41943;SDS011;27636;52.610;13.244;2023-07-30T03:26:31;10.85;;;4.95;;
41943;SDS011;27636;52.610;13.244;2023-07-30T03:31:35;13.02;;;5.20;;
41943;SDS011;27636;52.610;13.244;2023-07-30T03:36:39;10.18;;;5.63;;
41943;SDS011;27636;52.610;13.244;2023-07-30T03:41:45;9.48;;;4.47;;
41943;SDS011;27636;52.610;13.244;2023-07-30T03:46:48;12.20;;;5.43;;
41943;SDS011;27636;52.610;13.244;2023-07-30T03:51:52;15.95;;;5.30;;
41943;SDS011;27636;52.610;13.244;2023-07-30T03:56:57;10.60;;;5.30;;
41943;SDS011;27636;52.610;13.244;2023-07-30T04:02:02;13.63;;;6.05;;
41943;SDS011;27636;52.610;13.244;2023-07-30T04:07:07;11.70;;;5.70;;
41943;SDS011;27636;52.610;13.244;2023-07-30T04:12:12;12.15;;;5.57;;
41943;SDS011;27636;52.610;13.244;2023-07-30T04:17:16;10.93;;;5.57;;
41943;SDS011;27636;52.610;13.244;2023-07-30T04:22:23;12.35;;;5.07;;
41943;SDS011;27636;52.610;13.244;2023-07-30T04:27:28;11.27;;;5.40;;
41943;SDS011;27636;52.610;13.244;2023-07-30T04:32:35;10.30;;;5.30;;
41943;SDS011;27636;52.610;13.244;2023-07-30T04:37:38;9.25;;;5.05;;
41943;SDS011;27636;52.610;13.244;2023-07-30T04:42:43;8.32;;;4.45;;
41943;SDS011;27636;52.610;13.244;2023-07-30T04:47:47;13.32;;;5.57;;
41943;SDS011;27636;52.610;13.244;2023-07-30T04:52:51;13.65;;;6.90;;
41943;SDS011;27636;52.610;13.244;2023-07-30T04:57:56;15.02;;;7.80;;
41943;SDS011;27636;52.610;13.244;2023-07-30T05:03:00;13.05;;;7.40;;
41943;SDS011;27636;52.610;13.244;2023-07-30T05:08:04;16.55;;;8.35;;
41943;SDS011;27636;52.610;13.244;2023-07-30T05:13:09;21.48;;;9.73;;
41943;SDS011;27636;52.610;13.244;2023-07-30T05:18:13;18.08;;;9.20;;
41943;SDS011;27636;52.610;13.244;2023-07-30T05:23:16;13.93;;;6.78;;
41943;SDS011;27636;52.610;13.244;2023-07-30T05:28:21;11.63;;;6.47;;
41943;SDS011;27636;52.610;13.244;2023-07-30T05:33:25;8.85;;;4.88;;
41943;SDS011;27636;52.610;13.244;2023-07-30T05:38:28;7.13;;;3.50;;
41943;SDS011;27636;52.610;13.244;2023-07-30T05:43:34;7.93;;;3.90;;
41943;SDS011;27636;52.610;13.244;2023-07-30T05:48:38;7.43;;;4.05;;
41943;SDS011;27636;52.610;13.244;2023-07-30T05:53:42;7.53;;;3.60;;
41943;SDS011;27636;52.610;13.244;2023-07-30T05:58:47;7.93;;;3.50;;
41943;SDS011;27636;52.610;13.244;2023-07-30T06:03:50;5.95;;;3.13;;
41943;SDS011;27636;52.610;13.244;2023-07-30T06:08:54;6.15;;;3.25;;
41943;SDS011;27636;52.610;13.244;2023-07-30T06:13:59;7.30;;;4.18;;
41943;SDS011;27636;52.610;13.244;2023-07-30T06:19:03;6.38;;;3.35;;
41943;SDS011;27636;52.610;13.244;2023-07-30T06:24:07;4.55;;;2.40;;
41943;SDS011;27636;52.610;13.244;2023-07-30T06:29:12;5.70;;;2.47;;
41943;SDS011;27636;52.610;13.244;2023-07-30T06:34:16;4.00;;;2.00;;
41943;SDS011;27636;52.610;13.244;2023-07-30T06:39:19;5.50;;;2.33;;
41943;SDS011;27636;52.610;13.244;2023-07-30T06:44:25;4.47;;;2.20;;
41943;SDS011;27636;52.610;13.244;2023-07-30T06:49:40;5.63;;;2.22;;
41943;SDS011;27636;52.610;13.244;2023-07-30T06:54:43;4.80;;;2.28;;
41943;SDS011;27636;52.610;13.244;2023-07-30T06:59:47;7.05;;;2.30;;
41943;SDS011;27636;52.610;13.244;2023-07-30T07:04:53;5.47;;;2.67;;
41943;SDS011;27636;52.610;13.244;2023-07-30T07:09:57;3.45;;;1.60;;
41943;SDS011;27636;52.610;13.244;2023-07-30T07:15:00;6.95;;;2.40;;
41943;SDS011;27636;52.610;13.244;2023-07-30T07:20:07;5.53;;;3.05;;
41943;SDS011;27636;52.610;13.244;2023-07-30T07:25:11;9.75;;;2.38;;
41943;SDS011;27636;52.610;13.244;2023-07-30T07:30:15;4.60;;;2.05;;
41943;SDS011;27636;52.610;13.244;2023-07-30T07:35:20;5.35;;;2.10;;
41943;SDS011;27636;52.610;13.244;2023-07-30T07:40:24;5.72;;;2.25;;
41943;SDS011;27636;52.610;13.244;2023-07-30T07:45:28;3.73;;;1.97;;
41943;SDS011;27636;52.610;13.244;2023-07-30T07:50:33;5.23;;;2.10;;
41943;SDS011;27636;52.610;13.244;2023-07-30T07:55:37;5.03;;;2.40;;
41943;SDS011;27636;52.610;13.244;2023-07-30T08:00:41;4.23;;;1.97;;
41943;SDS011;27636;52.610;13.244;2023-07-30T08:05:46;9.57;;;2.10;;
41943;SDS011;27636;52.610;13.244;2023-07-30T08:10:49;4.85;;;2.10;;
41943;SDS011;27636;52.610;13.244;2023-07-30T08:15:53;3.88;;;1.67;;
41943;SDS011;27636;52.610;13.244;2023-07-30T08:20:58;2.88;;;1.55;;
41943;SDS011;27636;52.610;13.244;2023-07-30T08:26:02;8.57;;;2.08;;
41943;SDS011;27636;52.610;13.244;2023-07-30T08:31:06;8.57;;;1.50;;
41943;SDS011;27636;52.610;13.244;2023-07-30T08:36:11;5.13;;;1.98;;
41943;SDS011;27636;52.610;13.244;2023-07-30T08:41:14;6.20;;;1.80;;
41943;SDS011;27636;52.610;13.244;2023-07-30T08:46:18;4.00;;;1.93;;
41943;SDS011;27636;52.610;13.244;2023-07-30T08:56:29;7.82;;;1.70;;
41943;SDS011;27636;52.610;13.244;2023-07-30T09:01:34;6.00;;;1.42;;
41943;SDS011;27636;52.610;13.244;2023-07-30T09:06:42;5.35;;;1.30;;
41943;SDS011;27636;52.610;13.244;2023-07-30T09:11:50;6.10;;;2.35;;
41943;SDS011;27636;52.610;13.244;2023-07-30T09:16:56;4.35;;;1.52;;
41943;SDS011;27636;52.610;13.244;2023-07-30T09:22:04;3.25;;;1.58;;
41943;SDS011;27636;52.610;13.244;2023-07-30T09:27:08;2.95;;;1.25;;
41943;SDS011;27636;52.610;13.244;2023-07-30T09:32:12;6.07;;;1.50;;
41943;SDS011;27636;52.610;13.244;2023-07-30T09:37:17;3.23;;;1.37;;
41943;SDS011;27636;52.610;13.244;2023-07-30T09:42:20;5.05;;;1.60;;
41943;SDS011;27636;52.610;13.244;2023-07-30T09:47:30;4.03;;;1.80;;
41943;SDS011;27636;52.610;13.244;2023-07-30T09:52:35;4.80;;;1.77;;
41943;SDS011;27636;52.610;13.244;2023-07-30T09:57:39;3.28;;;1.65;;
41943;SDS011;27636;52.610;13.244;2023-07-30T10:02:45;3.60;;;1.37;;
41943;SDS011;27636;52.610;13.244;2023-07-30T10:07:51;3.92;;;1.70;;
41943;SDS011;27636;52.610;13.244;2023-07-30T10:12:59;5.90;;;1.80;;
41943;SDS011;27636;52.610;13.244;2023-07-30T10:18:06;3.60;;;1.52;;
41943;SDS011;27636;52.610;13.244;2023-07-30T10:23:11;5.80;;;2.10;;
41943;SDS011;27636;52.610;13.244;2023-07-30T10:28:31;7.80;;;2.10;;
41943;SDS011;27636;52.610;13.244;2023-07-30T10:33:46;4.00;;;1.80;;
41943;SDS011;27636;52.610;13.244;2023-07-30T10:38:53;4.70;;;1.60;;
41943;SDS011;27636;52.610;13.244;2023-07-30T10:43:57;6.60;;;1.58;;
41943;SDS011;27636;52.610;13.244;2023-07-30T10:49:03;3.28;;;1.33;;
41943;SDS011;27636;52.610;13.244;2023-07-30T10:54:08;3.45;;;1.48;;
41943;SDS011;27636;52.610;13.244;2023-07-30T10:59:12;3.33;;;1.67;;
41943;SDS011;27636;52.610;13.244;2023-07-30T11:04:17;4.25;;;1.63;;
41943;SDS011;27636;52.610;13.244;2023-07-30T11:09:23;3.63;;;1.30;;
41943;SDS011;27636;52.610;13.244;2023-07-30T11:14:28;5.18;;;1.70;;
41943;SDS011;27636;52.610;13.244;2023-07-30T11:19:32;6.13;;;1.83;;
41943;SDS011;27636;52.610;13.244;2023-07-30T11:29:41;4.88;;;1.30;;
41943;SDS011;27636;52.610;13.244;2023-07-30T11:34:57;5.15;;;1.95;;
41943;SDS011;27636;52.610;13.244;2023-07-30T11:40:02;6.45;;;2.22;;
41943;SDS011;27636;52.610;13.244;2023-07-30T11:50:25;3.70;;;1.55;;
41943;SDS011;27636;52.610;13.244;2023-07-30T11:55:37;5.37;;;1.60;;
41943;SDS011;27636;52.610;13.244;2023-07-30T12:00:43;5.83;;;1.77;;
41943;SDS011;27636;52.610;13.244;2023-07-30T12:05:48;4.28;;;1.70;;
41943;SDS011;27636;52.610;13.244;2023-07-30T12:10:54;3.55;;;1.50;;
41943;SDS011;27636;52.610;13.244;2023-07-30T12:16:00;3.53;;;1.65;;
41943;SDS011;27636;52.610;13.244;2023-07-30T12:21:03;13.02;;;1.92;;
41943;SDS011;27636;52.610;13.244;2023-07-30T12:26:11;7.25;;;2.00;;
41943;SDS011;27636;52.610;13.244;2023-07-30T12:31:14;4.75;;;1.80;;
41943;SDS011;27636;52.610;13.244;2023-07-30T12:36:18;6.43;;;1.50;;
41943;SDS011;27636;52.610;13.244;2023-07-30T12:41:23;9.32;;;1.67;;
41943;SDS011;27636;52.610;13.244;2023-07-30T12:46:28;3.05;;;1.23;;
41943;SDS011;27636;52.610;13.244;2023-07-30T12:51:33;3.25;;;1.52;;
41943;SDS011;27636;52.610;13.244;2023-07-30T12:56:38;5.50;;;1.63;;
41943;SDS011;27636;52.610;13.244;2023-07-30T13:01:42;6.93;;;1.88;;
41943;SDS011;27636;52.610;13.244;2023-07-30T13:06:49;3.65;;;1.55;;
41943;SDS011;27636;52.610;13.244;2023-07-30T13:11:54;4.05;;;1.77;;
41943;SDS011;27636;52.610;13.244;2023-07-30T13:16:57;4.43;;;1.60;;
41943;SDS011;27636;52.610;13.244;2023-07-30T13:22:01;5.47;;;1.65;;
41943;SDS011;27636;52.610;13.244;2023-07-30T13:27:06;5.80;;;1.93;;
41943;SDS011;27636;52.610;13.244;2023-07-30T13:32:09;2.22;;;1.25;;
41943;SDS011;27636;52.610;13.244;2023-07-30T13:37:13;3.70;;;1.30;;
41943;SDS011;27636;52.610;13.244;2023-07-30T13:42:18;3.10;;;1.33;;
41943;SDS011;27636;52.610;13.244;2023-07-30T13:47:21;8.48;;;1.80;;
41943;SDS011;27636;52.610;13.244;2023-07-30T13:52:25;4.73;;;1.47;;
41943;SDS011;27636;52.610;13.244;2023-07-30T13:57:30;4.30;;;1.60;;
41943;SDS011;27636;52.610;13.244;2023-07-30T14:02:36;3.15;;;1.08;;
41943;SDS011;27636;52.610;13.244;2023-07-30T14:07:40;2.58;;;1.17;;
41943;SDS011;27636;52.610;13.244;2023-07-30T14:12:45;3.17;;;1.33;;
41943;SDS011;27636;52.610;13.244;2023-07-30T14:17:48;5.53;;;1.00;;
41943;SDS011;27636;52.610;13.244;2023-07-30T14:22:53;3.00;;;1.17;;
41943;SDS011;27636;52.610;13.244;2023-07-30T14:27:58;2.47;;;1.13;;
41943;SDS011;27636;52.610;13.244;2023-07-30T14:33:02;2.20;;;0.80;;
41943;SDS011;27636;52.610;13.244;2023-07-30T14:38:06;4.68;;;1.02;;
41943;SDS011;27636;52.610;13.244;2023-07-30T14:43:11;4.55;;;1.20;;
41943;SDS011;27636;52.610;13.244;2023-07-30T14:48:14;4.90;;;1.02;;
41943;SDS011;27636;52.610;13.244;2023-07-30T14:53:18;6.28;;;1.35;;
41943;SDS011;27636;52.610;13.244;2023-07-30T14:58:23;3.42;;;1.13;;
41943;SDS011;27636;52.610;13.244;2023-07-30T15:03:27;4.22;;;1.33;;
41943;SDS011;27636;52.610;13.244;2023-07-30T15:08:31;4.20;;;1.10;;
41943;SDS011;27636;52.610;13.244;2023-07-30T15:13:36;3.95;;;1.25;;
41943;SDS011;27636;52.610;13.244;2023-07-30T15:18:40;3.80;;;1.33;;
41943;SDS011;27636;52.610;13.244;2023-07-30T15:23:45;3.85;;;1.83;;
41943;SDS011;27636;52.610;13.244;2023-07-30T15:28:50;2.50;;;1.20;;
41943;SDS011;27636;52.610;13.244;2023-07-30T15:33:54;3.97;;;1.10;;
41943;SDS011;27636;52.610;13.244;2023-07-30T15:38:57;7.43;;;1.30;;
41943;SDS011;27636;52.610;13.244;2023-07-30T15:44:02;1.88;;;1.20;;
41943;SDS011;27636;52.610;13.244;2023-07-30T15:49:06;5.97;;;0.90;;
41943;SDS011;27636;52.610;13.244;2023-07-30T16:13:54;3.97;;;1.13;;
41943;SDS011;27636;52.610;13.244;2023-07-30T16:18:58;2.17;;;1.08;;
41943;SDS011;27636;52.610;13.244;2023-07-30T16:24:03;5.53;;;1.33;;
41943;SDS011;27636;52.610;13.244;2023-07-30T16:29:10;2.75;;;1.05;;
41943;SDS011;27636;52.610;13.244;2023-07-30T16:34:14;2.28;;;0.93;;
41943;SDS011;27636;52.610;13.244;2023-07-30T16:39:18;2.30;;;0.93;;
41943;SDS011;27636;52.610;13.244;2023-07-30T16:44:23;2.40;;;1.10;;
41943;SDS011;27636;52.610;13.244;2023-07-30T16:49:26;3.28;;;1.10;;
41943;SDS011;27636;52.610;13.244;2023-07-30T16:54:30;2.95;;;1.10;;
41943;SDS011;27636;52.610;13.244;2023-07-30T16:59:35;4.38;;;1.40;;
41943;SDS011;27636;52.610;13.244;2023-07-30T17:04:38;3.05;;;1.20;;
41943;SDS011;27636;52.610;13.244;2023-07-30T17:09:42;5.20;;;1.23;;
41943;SDS011;27636;52.610;13.244;2023-07-30T17:14:47;10.13;;;1.52;;
41943;SDS011;27636;52.610;13.244;2023-07-30T17:24:54;4.68;;;1.40;;
41943;SDS011;27636;52.610;13.244;2023-07-30T17:30:02;4.63;;;1.70;;
41943;SDS011;27636;52.610;13.244;2023-07-30T17:35:05;3.10;;;1.45;;
41943;SDS011;27636;52.610;13.244;2023-07-30T17:40:10;5.68;;;1.55;;
41943;SDS011;27636;52.610;13.244;2023-07-30T17:45:16;3.22;;;1.67;;
41943;SDS011;27636;52.610;13.244;2023-07-30T17:50:20;6.00;;;1.65;;
41943;SDS011;27636;52.610;13.244;2023-07-30T17:55:24;3.83;;;1.80;;
41943;SDS011;27636;52.610;13.244;2023-07-30T18:00:29;10.68;;;1.73;;
41943;SDS011;27636;52.610;13.244;2023-07-30T18:05:32;3.20;;;1.35;;
41943;SDS011;27636;52.610;13.244;2023-07-30T18:10:48;5.20;;;1.90;;
41943;SDS011;27636;52.610;13.244;2023-07-30T18:15:53;5.38;;;1.58;;
41943;SDS011;27636;52.610;13.244;2023-07-30T18:20:57;3.95;;;1.65;;
41943;SDS011;27636;52.610;13.244;2023-07-30T18:26:00;10.18;;;2.30;;
41943;SDS011;27636;52.610;13.244;2023-07-30T18:31:05;5.25;;;1.60;;
41943;SDS011;27636;52.610;13.244;2023-07-30T18:36:09;7.05;;;3.38;;
41943;SDS011;27636;52.610;13.244;2023-07-30T18:41:13;5.18;;;2.08;;
41943;SDS011;27636;52.610;13.244;2023-07-30T18:46:17;8.43;;;1.83;;
41943;SDS011;27636;52.610;13.244;2023-07-30T18:56:25;4.35;;;2.17;;
41943;SDS011;27636;52.610;13.244;2023-07-30T19:01:31;6.38;;;2.42;;
41943;SDS011;27636;52.610;13.244;2023-07-30T19:06:35;6.07;;;2.03;;
41943;SDS011;27636;52.610;13.244;2023-07-30T19:11:39;10.73;;;2.67;;
41943;SDS011;27636;52.610;13.244;2023-07-30T19:16:44;7.70;;;2.78;;
41943;SDS011;27636;52.610;13.244;2023-07-30T19:21:48;9.02;;;2.38;;
41943;SDS011;27636;52.610;13.244;2023-07-30T19:26:53;7.38;;;3.00;;
41943;SDS011;27636;52.610;13.244;2023-07-30T19:31:57;12.10;;;3.38;;
41943;SDS011;27636;52.610;13.244;2023-07-30T19:37:01;7.40;;;3.05;;
41943;SDS011;27636;52.610;13.244;2023-07-30T19:42:05;8.27;;;2.85;;
41943;SDS011;27636;52.610;13.244;2023-07-30T19:47:10;8.85;;;2.70;;
41943;SDS011;27636;52.610;13.244;2023-07-30T19:52:14;9.43;;;2.35;;
41943;SDS011;27636;52.610;13.244;2023-07-30T19:57:18;7.20;;;2.58;;
41943;SDS011;27636;52.610;13.244;2023-07-30T20:02:22;6.18;;;2.90;;
41943;SDS011;27636;52.610;13.244;2023-07-30T20:07:26;11.55;;;2.80;;
41943;SDS011;27636;52.610;13.244;2023-07-30T20:12:29;9.75;;;2.92;;
41943;SDS011;27636;52.610;13.244;2023-07-30T20:17:34;7.03;;;3.67;;
41943;SDS011;27636;52.610;13.244;2023-07-30T20:22:38;7.28;;;3.15;;
41943;SDS011;27636;52.610;13.244;2023-07-30T20:27:41;11.60;;;3.67;;
41943;SDS011;27636;52.610;13.244;2023-07-30T20:32:46;6.10;;;2.67;;
41943;SDS011;27636;52.610;13.244;2023-07-30T20:37:50;7.95;;;3.55;;
41943;SDS011;27636;52.610;13.244;2023-07-30T20:42:54;13.30;;;3.17;;
41943;SDS011;27636;52.610;13.244;2023-07-30T20:47:59;11.68;;;4.07;;
41943;SDS011;27636;52.610;13.244;2023-07-30T20:53:03;8.85;;;3.75;;
41943;SDS011;27636;52.610;13.244;2023-07-30T20:58:06;6.90;;;3.42;;
41943;SDS011;27636;52.610;13.244;2023-07-30T21:03:11;6.40;;;3.20;;
41943;SDS011;27636;52.610;13.244;2023-07-30T21:13:19;12.82;;;3.33;;
41943;SDS011;27636;52.610;13.244;2023-07-30T21:18:24;7.03;;;2.80;;
41943;SDS011;27636;52.610;13.244;2023-07-30T21:23:27;9.00;;;3.90;;
41943;SDS011;27636;52.610;13.244;2023-07-30T21:28:31;10.73;;;3.75;;
41943;SDS011;27636;52.610;13.244;2023-07-30T21:33:36;13.68;;;4.13;;
41943;SDS011;27636;52.610;13.244;2023-07-30T21:38:40;11.90;;;3.63;;
41943;SDS011;27636;52.610;13.244;2023-07-30T21:43:44;12.63;;;2.88;;
41943;SDS011;27636;52.610;13.244;2023-07-30T21:48:49;7.63;;;3.20;;
41943;SDS011;27636;52.610;13.244;2023-07-30T21:53:53;10.00;;;3.35;;
41943;SDS011;27636;52.610;13.244;2023-07-30T21:58:56;6.38;;;2.67;;
41943;SDS011;27636;52.610;13.244;2023-07-30T22:04:01;5.35;;;3.15;;
41943;SDS011;27636;52.610;13.244;2023-07-30T22:09:05;6.70;;;2.72;;
41943;SDS011;27636;52.610;13.244;2023-07-30T22:14:09;4.72;;;1.98;;
41943;SDS011;27636;52.610;13.244;2023-07-30T22:19:13;5.85;;;2.17;;
41943;SDS011;27636;52.610;13.244;2023-07-30T22:24:18;5.63;;;2.55;;
41943;SDS011;27636;52.610;13.244;2023-07-30T22:29:21;6.90;;;2.13;;
41943;SDS011;27636;52.610;13.244;2023-07-30T22:34:26;3.90;;;1.95;;
41943;SDS011;27636;52.610;13.244;2023-07-30T22:44:34;9.00;;;2.10;;
41943;SDS011;27636;52.610;13.244;2023-07-30T22:49:39;6.32;;;1.88;;
41943;SDS011;27636;52.610;13.244;2023-07-30T22:54:42;5.10;;;1.98;;
41943;SDS011;27636;52.610;13.244;2023-07-30T22:59:46;7.03;;;2.35;;
41943;SDS011;27636;52.610;13.244;2023-07-30T23:04:51;4.07;;;2.08;;
41943;SDS011;27636;52.610;13.244;2023-07-30T23:09:55;4.22;;;2.00;;
41943;SDS011;27636;52.610;13.244;2023-07-30T23:14:58;5.03;;;1.95;;
41943;SDS011;27636;52.610;13.244;2023-07-30T23:20:04;5.03;;;2.22;;
41943;SDS011;27636;52.610;13.244;2023-07-30T23:25:09;5.40;;;2.40;;
41943;SDS011;27636;52.610;13.244;2023-07-30T23:30:13;5.18;;;2.33;;
41943;SDS011;27636;52.610;13.244;2023-07-30T23:35:18;4.32;;;1.88;;
41943;SDS011;27636;52.610;13.244;2023-07-30T23:40:22;6.93;;;1.92;;
41943;SDS011;27636;52.610;13.244;2023-07-30T23:45:26;4.53;;;1.98;;
41943;SDS011;27636;52.610;13.244;2023-07-30T23:50:32;6.07;;;2.03;;
41943;SDS011;27636;52.610;13.244;2023-07-30T23:55:35;10.18;;;2.05;;
